Time;durP1;ratioP1;P1;durP2;ratioP2;P2;SDS_P1;SDS_P2;PMS_P1;PMS_P2;Temp;Humidity;BMP_temperature;BMP_pressure;BME280_temperature;BME280_humidity;BME280_pressure;Samples;Min_cycle;Max_cycle;Signal;HPM_P1;HPM_P2
2022/06/12 00:00:13;;;;;;;3.50;2.42;;;;;;;19.30;nan;-24354.28;5052220;28;20269;-59
2022/06/12 00:02:42;;;;;;;3.30;2.47;;;;;;;19.21;nan;-24351.75;5051660;28;20193;-59
2022/06/12 00:05:09;;;;;;;3.78;2.35;;;;;;;19.14;nan;-24349.81;5052393;28;20231;-58
2022/06/12 00:07:34;;;;;;;3.45;2.65;;;;;;;18.74;nan;-24338.69;5051791;28;20628;-58
2022/06/12 00:10:00;;;;;;;3.40;2.55;;;;;;;19.08;nan;-24348.00;5052031;28;20170;-58
2022/06/12 00:12:25;;;;;;;3.17;2.40;;;;;;;18.85;nan;-24341.88;5051186;28;20182;-59
2022/06/12 00:14:51;;;;;;;3.53;2.50;;;;;;;19.16;nan;-24350.22;5051658;28;20167;-59
2022/06/12 00:17:16;;;;;;;3.53;2.47;;;;;;;19.20;nan;-24351.34;5051120;28;20232;-59
2022/06/12 00:19:44;;;;;;;2.80;2.22;;;;;;;19.16;nan;-24350.38;5051176;28;20258;-58
2022/06/12 00:22:10;;;;;;;3.38;2.47;;;;;;;19.21;nan;-24351.75;5051342;28;20187;-59
2022/06/12 00:24:37;;;;;;;3.15;2.28;;;;;;;18.92;nan;-24343.84;5050670;28;20582;-59
2022/06/12 00:27:03;;;;;;;3.40;2.42;;;;;;;18.91;nan;-24343.41;5051473;28;20185;-59
2022/06/12 00:29:32;;;;;;;3.22;2.25;;;;;;;19.05;nan;-24347.19;5050756;28;20186;-58
2022/06/12 00:32:12;;;;;;;4.25;2.60;;;;;;;19.33;nan;-24354.97;5049404;28;20268;-58
2022/06/12 00:34:51;;;;;;;4.40;2.88;;;;;;;19.19;nan;-24351.22;5050570;28;20194;-58
2022/06/12 00:37:19;;;;;;;4.03;2.65;;;;;;;18.84;nan;-24341.47;5047673;28;20206;-58
2022/06/12 00:39:47;;;;;;;3.05;2.25;;;;;;;19.19;nan;-24351.22;5051361;28;20205;-60
2022/06/12 00:42:27;;;;;;;2.92;2.17;;;;;;;19.18;nan;-24350.94;5051372;28;20217;-60
2022/06/12 00:44:55;;;;;;;3.17;2.15;;;;;;;19.20;nan;-24351.34;5049973;28;20217;-59
2022/06/12 00:47:21;;;;;;;4.60;2.20;;;;;;;19.27;nan;-24353.28;5050293;28;20183;-57
2022/06/12 00:49:57;;;;;;;3.40;2.40;;;;;;;19.24;nan;-24352.59;5050719;28;20179;-59
2022/06/12 00:52:30;;;;;;;3.08;2.10;;;;;;;18.95;nan;-24344.66;5050153;28;20197;-61
2022/06/12 00:55:01;;;;;;;3.20;2.25;;;;;;;18.79;nan;-24340.22;5047957;28;20178;-58
2022/06/12 00:57:28;;;;;;;3.17;2.22;;;;;;;19.06;nan;-24347.59;5050166;28;20171;-61
2022/06/12 00:59:59;;;;;;;2.90;2.20;;;;;;;19.21;nan;-24351.75;5051165;28;20265;-58
2022/06/12 01:02:31;;;;;;;3.13;2.05;;;;;;;19.17;nan;-24350.50;5050612;28;20217;-59
2022/06/12 01:07:53;;;;;;;2.20;2.00;;;;;;;18.88;nan;-24342.72;5019322;28;20201;-58
2022/06/12 01:10:23;;;;;;;3.55;2.40;;;;;;;19.00;nan;-24345.78;5050262;28;20183;-58
2022/06/12 01:12:52;;;;;;;3.00;2.13;;;;;;;18.98;nan;-24345.38;5049808;28;20186;-58
2022/06/12 01:15:26;;;;;;;2.83;2.10;;;;;;;19.07;nan;-24347.88;5050105;28;20178;-59
2022/06/12 01:17:52;;;;;;;3.08;2.10;;;;;;;19.25;nan;-24352.75;5050211;28;20596;-58
2022/06/12 01:20:25;;;;;;;3.10;2.05;;;;;;;19.17;nan;-24350.66;5050003;28;20198;-58
2022/06/12 01:23:21;;;;;;;3.30;2.42;;;;;;;19.07;nan;-24347.88;5049961;28;20235;-59
2022/06/12 01:26:20;;;;;;;2.97;2.22;;;;;;;19.17;nan;-24350.66;5050316;28;20179;-59
2022/06/12 01:28:45;;;;;;;2.72;2.05;;;;;;;19.18;nan;-24350.94;5050166;28;20221;-58
2022/06/12 01:31:19;;;;;;;4.18;2.42;;;;;;;18.78;nan;-24339.78;5045861;28;20302;-58
2022/06/12 01:33:56;;;;;;;3.85;2.25;;;;;;;18.77;nan;-24339.53;5049638;28;20269;-59
2022/06/12 01:36:34;;;;;;;3.03;2.10;;;;;;;19.15;nan;-24349.94;5047122;28;20184;-58
2022/06/12 01:39:22;;;;;;;3.72;2.42;;;;;;;18.71;nan;-24338.00;5048169;28;20272;-59
2022/06/12 01:42:01;;;;;;;4.63;2.50;;;;;;;18.97;nan;-24345.09;5048685;28;20197;-59
2022/06/12 01:45:02;;;;;;;3.00;2.10;;;;;;;18.88;nan;-24342.72;5049689;28;20198;-59
2022/06/12 01:47:31;;;;;;;2.50;2.00;;;;;;;18.90;nan;-24343.28;5048686;28;20595;-59
2022/06/12 01:50:09;;;;;;;3.20;2.10;;;;;;;18.84;nan;-24341.59;5047708;28;20190;-58
2022/06/12 01:52:53;;;;;;;3.20;2.30;;;;;;;19.09;nan;-24348.44;5049031;28;20353;-60
2022/06/12 01:55:52;;;;;;;3.70;2.40;;;;;;;19.02;nan;-24346.34;5046695;28;20288;-59
2022/06/12 01:58:20;;;;;;;2.80;2.20;;;;;;;18.92;nan;-24343.69;5045935;28;20178;-59
2022/06/12 02:00:52;;;;;;;2.92;2.20;;;;;;;18.91;nan;-24343.41;5048424;28;20214;-60
2022/06/12 02:03:57;;;;;;;2.75;2.30;;;;;;;19.03;nan;-24346.75;5049246;28;20230;-59
2022/06/12 02:06:40;;;;;;;3.25;2.40;;;;;;;18.94;nan;-24344.38;5011147;28;20198;-59
2022/06/12 02:09:19;;;;;;;4.82;2.30;;;;;;;18.95;nan;-24344.66;5053057;28;20197;-59
2022/06/12 02:14:46;;;;;;;5.95;2.00;;;;;;;18.95;nan;-24344.53;5052853;28;20711;-59
2022/06/12 02:17:20;;;;;;;3.88;2.20;;;;;;;18.71;nan;-24337.84;5050136;28;20235;-58
2022/06/12 02:19:47;;;;;;;3.80;2.38;;;;;;;18.76;nan;-24339.25;5054063;28;20236;-60
2022/06/12 02:22:34;;;;;;;3.60;2.50;;;;;;;18.97;nan;-24345.22;5053986;28;20166;-59
2022/06/12 02:25:04;;;;;;;3.35;2.33;;;;;;;18.66;nan;-24336.59;5047628;28;20669;-59
2022/06/12 02:27:46;;;;;;;3.22;2.47;;;;;;;18.73;nan;-24338.41;5053015;28;20185;-59
2022/06/12 02:30:17;;;;;;;4.22;2.63;;;;;;;18.97;nan;-24345.09;5050131;28;20214;-60
2022/06/12 02:33:09;;;;;;;3.13;2.40;;;;;;;18.97;nan;-24345.22;5053583;28;20278;-58
2022/06/12 02:35:47;;;;;;;3.97;2.40;;;;;;;18.62;nan;-24335.34;5047972;28;20579;-60
2022/06/12 02:38:23;;;;;;;3.55;2.22;;;;;;;19.01;nan;-24346.19;5049818;28;20170;-59
2022/06/12 02:40:55;;;;;;;3.88;2.70;;;;;;;18.88;nan;-24342.56;5052648;28;20189;-59
2022/06/12 02:43:27;;;;;;;4.28;2.90;;;;;;;18.97;nan;-24345.22;5052648;28;20285;-60
2022/06/12 02:46:08;;;;;;;2.55;2.22;;;;;;;18.95;nan;-24344.66;5052550;28;20178;-60
2022/06/12 02:48:34;;;;;;;2.90;2.38;;;;;;;18.83;nan;-24341.19;5052376;28;20274;-59
2022/06/12 02:51:17;;;;;;;2.85;2.40;;;;;;;18.72;nan;-24338.25;5053339;28;20346;-59
2022/06/12 02:54:27;;;;;;;3.65;2.80;;;;;;;18.46;nan;-24331.00;5053188;28;20182;-58
2022/06/12 02:56:59;;;;;;;6.50;2.67;;;;;;;18.68;nan;-24337.00;5053391;28;20182;-59
2022/06/12 02:59:45;;;;;;;3.50;2.28;;;;;;;18.69;nan;-24337.44;5052222;28;20182;-58
2022/06/12 03:02:16;;;;;;;4.28;2.88;;;;;;;18.26;nan;-24325.44;5049380;28;20187;-58
2022/06/12 03:04:48;;;;;;;3.45;2.72;;;;;;;18.40;nan;-24329.34;5051899;28;20234;-59
2022/06/12 03:07:14;;;;;;;6.70;3.10;;;;;;;18.34;nan;-24327.81;5049679;28;20265;-59
2022/06/12 03:09:40;;;;;;;3.20;2.35;;;;;;;18.38;nan;-24328.94;5052691;28;20175;-59
2022/06/12 03:12:07;;;;;;;3.97;2.65;;;;;;;18.52;nan;-24332.81;5052846;28;20543;-59
2022/06/12 03:14:33;;;;;;;4.78;2.88;;;;;;;18.84;nan;-24341.59;5052687;28;20185;-59
2022/06/12 03:16:58;;;;;;;3.35;2.60;;;;;;;18.49;nan;-24331.84;5052450;28;20187;-59
2022/06/12 03:19:29;;;;;;;4.55;2.70;;;;;;;18.84;nan;-24341.47;5051664;28;20179;-60
2022/06/12 03:22:05;;;;;;;4.53;2.80;;;;;;;18.83;nan;-24341.19;5050321;28;20190;-60
2022/06/12 03:24:50;;;;;;;3.80;2.50;;;;;;;18.91;nan;-24343.56;5051820;28;20194;-59
2022/06/12 03:27:49;;;;;;;3.25;2.38;;;;;;;18.91;nan;-24343.41;5047402;28;20194;-60
2022/06/12 03:48:55;;;;;;;4.00;2.83;;;;;;;17.98;100.00;-24317.91;5042249;28;22501;-61
2022/06/12 03:51:34;;;;;;;3.33;2.70;;;;;;;19.03;100.00;-24346.63;5043708;28;20183;-64
2022/06/12 03:54:17;;;;;;;4.40;2.88;;;;;;;19.02;100.00;-24346.34;5042753;28;20183;-63
2022/06/12 03:59:36;;;;;;;4.20;2.72;;;;;;;19.09;100.00;-24348.44;5042186;28;20272;-64
2022/06/12 04:02:05;;;;;;;3.25;2.28;;;;;;;19.06;100.00;-24347.59;5041333;28;20179;-62
2022/06/12 04:04:33;;;;;;;4.07;2.90;;;;;;;18.73;100.00;-24338.53;5040458;28;20324;-65
2022/06/12 04:07:03;;;;;;;3.92;2.63;;;;;;;18.82;100.00;-24340.91;5040765;28;20174;-63
2022/06/12 04:09:34;;;;;;;3.85;2.85;;;;;;;18.91;100.00;-24343.41;5041867;28;20183;-63
2022/06/12 04:12:02;;;;;;;4.88;3.08;;;;;;;18.94;100.00;-24344.25;5041063;28;20190;-65
2022/06/12 04:14:37;;;;;;;5.05;3.20;;;;;;;19.25;100.00;-24352.88;5037008;28;20189;-62
2022/06/12 04:17:04;;;;;;;4.68;3.22;;;;;;;19.22;100.00;-24352.03;5041001;28;20415;-66
2022/06/12 04:19:58;;;;;;;5.60;3.17;;;;;;;19.37;100.00;-24356.22;5041495;28;20187;-61
2022/06/12 04:22:19;;;;;;;4.50;2.90;;;;;;;19.36;100.00;-24355.81;5041590;28;20199;-65
2022/06/12 04:24:49;;;;;;;4.15;2.97;;;;;;;19.09;100.00;-24348.44;5041917;28;20187;-64
2022/06/12 04:27:21;;;;;;;3.72;2.85;;;;;;;19.09;100.00;-24348.44;5046806;28;20193;-65
2022/06/12 04:30:17;;;;;;;4.90;3.08;;;;;;;19.42;100.00;-24357.59;5040463;28;20178;-64
2022/06/12 04:32:43;;;;;;;3.85;2.67;;;;;;;19.50;100.00;-24359.56;5041075;28;20641;-63
2022/06/12 04:35:09;;;;;;;4.20;2.97;;;;;;;19.51;100.00;-24359.84;5041584;28;20735;-63
2022/06/12 04:37:35;;;;;;;4.30;2.70;;;;;;;19.31;100.00;-24354.53;5040484;28;20293;-66
2022/06/12 04:40:03;;;;;;;4.13;2.72;;;;;;;19.66;100.00;-24364.00;5040811;28;20199;-63
2022/06/12 04:42:31;;;;;;;3.63;2.65;;;;;;;19.26;100.00;-24353.16;5040212;28;20187;-62
2022/06/12 04:45:00;;;;;;;4.85;2.90;;;;;;;19.38;100.00;-24356.34;5039875;28;20270;-62
2022/06/12 04:47:28;;;;;;;4.68;3.10;;;;;;;19.37;100.00;-24356.22;5039078;28;20253;-63
2022/06/12 04:49:53;;;;;;;3.97;2.95;;;;;;;19.73;100.00;-24365.94;5026028;28;20572;-62
2022/06/12 04:52:23;;;;;;;4.47;3.35;;;;;;;19.80;100.00;-24368.03;5025910;28;20179;-64
2022/06/12 04:54:49;;;;;;;3.38;2.60;;;;;;;19.47;100.00;-24358.84;5026272;28;20191;-64
2022/06/12 04:57:17;;;;;;;4.43;3.25;;;;;;;19.40;100.00;-24357.06;5026094;28;20222;-67
2022/06/12 04:59:44;;;;;;;4.78;3.35;;;;;;;19.44;100.00;-24358.03;5026120;28;20171;-62
2022/06/12 05:02:09;;;;;;;4.03;2.70;;;;;;;19.65;100.00;-24363.72;5026832;28;20183;-63
2022/06/12 05:04:35;;;;;;;5.03;2.95;;;;;;;19.50;100.00;-24359.69;5026847;28;20186;-62
2022/06/12 05:07:02;;;;;;;4.80;3.33;;;;;;;19.70;100.00;-24365.25;5026386;28;20673;-64
2022/06/12 05:09:33;;;;;;;4.60;3.05;;;;;;;19.62;100.00;-24363.03;5035442;28;20193;-64
2022/06/12 05:11:59;;;;;;;5.75;3.22;;;;;;;19.40;100.00;-24356.91;5026009;28;20270;-61
2022/06/12 05:14:24;;;;;;;5.05;2.97;;;;;;;19.79;100.00;-24367.75;5025812;28;20244;-61
2022/06/12 05:16:57;;;;;;;5.05;2.75;;;;;;;19.57;100.00;-24361.66;5027402;28;20195;-64
2022/06/12 05:19:26;;;;;;;5.82;3.03;;;;;;;19.68;100.00;-24364.56;5026868;28;20236;-62
2022/06/12 05:21:52;;;;;;;4.25;2.90;;;;;;;19.30;100.00;-24354.28;5026283;28;20540;-64
2022/06/12 05:24:17;;;;;;;5.07;3.40;;;;;;;19.59;100.00;-24362.19;5027316;28;20209;-65
2022/06/12 05:26:45;;;;;;;4.60;2.90;;;;;;;19.68;100.00;-24364.56;5026939;28;20190;-63
2022/06/12 05:29:15;;;;;;;5.28;3.17;;;;;;;19.45;100.00;-24358.31;5026253;28;20191;-61
2022/06/12 05:31:41;;;;;;;4.47;3.05;;;;;;;19.48;100.00;-24359.00;5057522;28;20183;-64
2022/06/12 05:34:06;;;;;;;5.40;3.63;;;;;;;19.36;100.00;-24355.94;5025520;28;20584;-63
2022/06/12 05:36:33;;;;;;;5.72;3.72;;;;;;;19.60;100.00;-24362.47;5025258;28;20207;-64
2022/06/12 05:38:59;;;;;;;4.78;3.38;;;;;;;19.61;100.00;-24362.63;5026152;28;20189;-62
2022/06/12 05:41:24;;;;;;;5.38;3.47;;;;;;;19.65;100.00;-24363.72;5026076;28;20175;-66
2022/06/12 05:43:50;;;;;;;5.18;3.13;;;;;;;19.67;100.00;-24364.28;5025701;28;20709;-62
2022/06/12 05:46:16;;;;;;;5.15;3.70;;;;;;;19.59;100.00;-24362.19;5026783;28;20182;-64
2022/06/12 05:48:43;;;;;;;4.85;3.13;;;;;;;19.58;100.00;-24361.78;5025591;28;20221;-65
2022/06/12 05:51:13;;;;;;;4.57;2.95;;;;;;;19.54;100.00;-24360.66;5026765;28;20638;-62
2022/06/12 05:53:38;;;;;;;4.50;3.15;;;;;;;19.74;100.00;-24366.22;5026474;28;20192;-64
2022/06/12 05:56:06;;;;;;;6.40;3.20;;;;;;;19.80;100.00;-24367.91;5025945;28;20261;-64
2022/06/12 05:58:32;;;;;;;5.28;3.17;;;;;;;19.91;100.00;-24370.81;5025604;28;20186;-64
2022/06/12 06:00:58;;;;;;;5.68;3.50;;;;;;;19.93;100.00;-24371.38;5025465;28;20172;-62
2022/06/12 06:03:24;;;;;;;5.25;3.33;;;;;;;19.59;100.00;-24362.06;5025266;28;20191;-64
2022/06/12 06:05:50;;;;;;;4.40;3.17;;;;;;;20.20;100.00;-24379.00;5026375;28;20187;-61
2022/06/12 06:08:17;;;;;;;5.63;3.67;;;;;;;20.18;100.00;-24378.47;5025628;28;20187;-60
2022/06/12 06:10:43;;;;;;;8.15;3.90;;;;;;;20.02;100.00;-24374.00;5025699;28;20171;-65
2022/06/12 06:13:10;;;;;;;5.20;3.53;;;;;;;20.17;100.00;-24378.03;5025223;28;20668;-62
2022/06/12 06:15:37;;;;;;;5.03;3.30;;;;;;;20.68;100.00;-24392.19;5026455;28;20179;-63
2022/06/12 06:18:03;;;;;;;6.07;3.40;;;;;;;19.90;100.00;-24370.69;5026254;28;20230;-63
2022/06/12 06:20:34;;;;;;;5.88;3.45;;;;;;;20.79;100.00;-24394.97;5025117;28;20186;-64
2022/06/12 06:22:59;;;;;;;5.97;3.90;;;;;;;20.72;100.00;-24393.31;5024570;28;20249;-64
2022/06/12 06:25:27;;;;;;;4.88;3.58;;;;;;;20.56;100.00;-24388.75;5025685;28;20191;-65
2022/06/12 06:27:53;;;;;;;5.00;3.42;;;;;;;20.13;100.00;-24377.06;5030719;28;20225;-64
2022/06/12 06:30:20;;;;;;;5.45;3.33;;;;;;;20.46;100.00;-24386.09;5031367;28;20191;-64
2022/06/12 06:32:46;;;;;;;4.97;3.20;;;;;;;20.55;100.00;-24388.47;5031242;28;20183;-63
2022/06/12 06:35:13;;;;;;;4.80;3.40;;;;;;;20.62;100.00;-24390.41;5030916;28;20182;-63
2022/06/12 06:37:40;;;;;;;5.00;3.40;;;;;;;20.70;100.00;-24392.63;5029542;28;20277;-64
2022/06/12 06:40:08;;;;;;;5.65;3.42;;;;;;;20.90;100.00;-24398.03;5030524;28;20218;-64
2022/06/12 06:42:34;;;;;;;5.25;3.92;;;;;;;20.87;100.00;-24397.34;5030872;28;20203;-65
2022/06/12 06:47:57;;;;;;;4.20;3.10;;;;;;;20.71;100.00;-24393.03;5020029;28;20321;-62
2022/06/12 06:50:24;;;;;;;5.30;3.60;;;;;;;21.07;100.00;-24402.75;5031184;28;20270;-63
2022/06/12 06:52:50;;;;;;;5.68;3.65;;;;;;;20.88;100.00;-24397.63;5031081;28;20610;-65
2022/06/12 06:55:17;;;;;;;6.47;4.13;;;;;;;20.83;100.00;-24396.09;5030805;28;20275;-64
2022/06/12 06:57:45;;;;;;;7.20;4.20;;;;;;;20.98;100.00;-24400.38;5030297;28;20842;-62
2022/06/12 07:00:16;;;;;;;5.53;3.80;;;;;;;20.90;100.00;-24398.16;5030364;28;20180;-64
2022/06/12 07:02:42;;;;;;;6.78;4.55;;;;;;;20.52;100.00;-24387.75;5030598;28;20194;-61
2022/06/12 07:05:08;;;;;;;5.45;3.90;;;;;;;20.97;100.00;-24399.97;5030549;28;20183;-66
2022/06/12 07:07:34;;;;;;;5.68;3.38;;;;;;;20.93;100.00;-24399.00;5031061;28;20183;-62
2022/06/12 07:10:01;;;;;;;5.35;3.80;;;;;;;21.14;100.00;-24404.84;5030944;28;20274;-65
2022/06/12 07:12:26;;;;;;;4.93;3.65;;;;;;;21.13;100.00;-24404.41;5028986;28;20179;-64
2022/06/12 07:14:52;;;;;;;6.05;3.83;;;;;;;21.25;100.00;-24407.75;5029346;28;20703;-63
2022/06/12 07:17:17;;;;;;;5.45;3.63;;;;;;;21.23;100.00;-24407.19;5029588;28;20206;-63
2022/06/12 07:19:44;;;;;;;6.57;3.95;;;;;;;21.36;100.00;-24410.78;5029986;28;20175;-62
2022/06/12 07:22:10;;;;;;;6.00;3.83;;;;;;;21.57;100.00;-24416.47;5028573;28;20175;-66
2022/06/12 07:24:35;;;;;;;5.13;3.65;;;;;;;21.64;100.00;-24418.28;5030861;28;20535;-63
2022/06/12 07:27:01;;;;;;;4.82;3.33;;;;;;;21.40;100.00;-24411.75;5029935;28;20179;-61
2022/06/12 07:29:26;;;;;;;5.80;3.70;;;;;;;21.72;100.00;-24420.50;5029545;28;20638;-62
2022/06/12 07:31:52;;;;;;;5.47;3.95;;;;;;;21.87;100.00;-24424.78;5030293;28;20551;-65
2022/06/12 07:34:18;;;;;;;4.63;3.10;;;;;;;21.53;100.00;-24415.50;5030438;28;20691;-64
2022/06/12 07:36:47;;;;;;;4.60;3.38;;;;;;;21.75;100.00;-24421.47;5031605;28;20199;-66
2022/06/12 07:39:16;;;;;;;4.70;3.53;;;;;;;21.75;100.00;-24421.31;5031400;28;20210;-62
2022/06/12 07:41:43;;;;;;;5.15;3.80;;;;;;;21.43;100.00;-24412.59;5030794;28;20179;-64
2022/06/12 07:44:10;;;;;;;4.50;3.63;;;;;;;21.78;100.00;-24422.16;5030506;28;20713;-65
2022/06/12 07:46:35;;;;;;;4.28;3.40;;;;;;;21.60;100.00;-24417.44;5030476;28;20255;-64
2022/06/12 07:49:01;;;;;;;5.68;3.55;;;;;;;21.28;100.00;-24408.56;5029140;28;20199;-65
2022/06/12 07:51:26;;;;;;;3.75;3.17;;;;;;;21.52;100.00;-24415.09;5031269;28;20282;-63
2022/06/12 07:53:53;;;;;;;4.90;3.78;;;;;;;21.36;100.00;-24410.66;5030161;28;20172;-62
2022/06/12 07:56:20;;;;;;;4.28;3.25;;;;;;;21.14;100.00;-24404.84;5031077;28;20245;-65
2022/06/12 07:58:45;;;;;;;4.40;3.20;;;;;;;21.47;100.00;-24413.69;5031229;28;20164;-65
2022/06/12 08:01:16;;;;;;;4.35;3.08;;;;;;;21.11;100.00;-24404.00;5030521;28;20266;-62
2022/06/12 08:03:41;;;;;;;4.57;3.30;;;;;;;21.11;100.00;-24403.84;5028955;28;20187;-65
2022/06/12 08:06:07;;;;;;;5.10;3.22;;;;;;;21.22;100.00;-24406.91;5030269;28;20183;-62
2022/06/12 08:08:33;;;;;;;5.32;3.35;;;;;;;21.44;100.00;-24413.00;5030536;28;20179;-65
2022/06/12 08:11:01;;;;;;;3.60;2.72;;;;;;;21.52;100.00;-24415.22;5029842;28;20535;-63
2022/06/12 08:13:27;;;;;;;5.43;3.20;;;;;;;21.10;100.00;-24403.56;5029492;28;20233;-64
2022/06/12 08:15:54;;;;;;;4.25;3.20;;;;;;;21.04;100.00;-24401.91;5030094;28;20191;-63
2022/06/12 08:18:21;;;;;;;3.60;2.90;;;;;;;21.26;100.00;-24407.88;5029248;28;20186;-63
2022/06/12 08:20:51;;;;;;;4.15;2.80;;;;;;;21.20;100.00;-24406.22;5027537;28;20259;-64
2022/06/12 08:23:26;;;;;;;4.78;3.33;;;;;;;21.13;100.00;-24404.41;5030954;28;20183;-64
2022/06/12 08:25:57;;;;;;;3.67;2.80;;;;;;;21.27;100.00;-24408.16;5033547;28;20175;-63
2022/06/12 08:28:25;;;;;;;2.97;2.20;;;;;;;21.02;100.00;-24401.50;5032881;28;20253;-63
2022/06/12 08:30:51;;;;;;;5.15;3.25;;;;;;;21.00;100.00;-24400.94;5033601;28;20187;-63
2022/06/12 08:33:17;;;;;;;3.88;2.88;;;;;;;21.44;100.00;-24413.00;5033838;28;20222;-62
2022/06/12 08:35:42;;;;;;;4.57;3.15;;;;;;;21.13;100.00;-24404.41;5033771;28;20186;-63
2022/06/12 08:38:08;;;;;;;3.50;2.80;;;;;;;21.72;100.00;-24420.50;5033882;28;20211;-65
2022/06/12 08:40:55;;;;;;;3.78;2.75;;;;;;;21.73;100.00;-24420.91;5034515;28;20582;-63
2022/06/12 08:43:42;;;;;;;4.65;3.13;;;;;;;21.94;100.00;-24426.59;5033752;28;20172;-61
2022/06/12 08:46:24;;;;;;;6.15;3.28;;;;;;;21.65;100.00;-24418.56;5030950;28;20182;-61
2022/06/12 08:49:04;;;;;;;4.32;3.17;;;;;;;22.33;100.00;-24437.25;5033118;28;20175;-67
2022/06/12 08:51:39;;;;;;;4.55;3.08;;;;;;;22.25;100.00;-24435.16;5032723;28;20642;-61
2022/06/12 08:54:13;;;;;;;5.03;3.38;;;;;;;22.73;100.00;-24448.19;5030574;28;20697;-62
2022/06/12 08:56:45;;;;;;;5.00;3.25;;;;;;;22.83;100.00;-24451.09;5033526;28;20213;-64
2022/06/12 08:59:17;;;;;;;4.22;3.08;;;;;;;23.37;100.00;-24465.59;5034169;28;20183;-61
2022/06/12 09:01:43;;;;;;;4.28;2.70;;;;;;;23.46;100.00;-24468.22;5034113;28;20207;-65
2022/06/12 09:04:13;;;;;;;5.00;3.10;;;;;;;23.08;100.00;-24457.84;5034193;28;20194;-64
2022/06/12 09:07:03;;;;;;;4.30;3.03;;;;;;;23.49;100.00;-24468.91;5033989;28;20191;-65
2022/06/12 09:09:58;;;;;;;4.40;3.03;;;;;;;23.23;100.00;-24461.84;5032230;28;20172;-63
2022/06/12 09:12:33;;;;;;;3.90;2.88;;;;;;;23.12;100.00;-24458.81;5033253;28;20281;-65
2022/06/12 09:15:10;;;;;;;4.68;2.90;;;;;;;23.37;100.00;-24465.59;5032917;28;20202;-62
2022/06/12 09:18:04;;;;;;;7.03;3.28;;;;;;;22.99;100.00;-24455.38;5033466;28;20211;-64
2022/06/12 09:20:54;;;;;;;3.63;3.08;;;;;;;22.43;100.00;-24440.16;5032432;28;20184;-63
2022/06/12 09:23:26;;;;;;;4.00;3.20;;;;;;;22.47;100.00;-24441.13;5032080;28;20203;-64
2022/06/12 09:26:01;;;;;;;4.93;3.53;;;;;;;22.75;100.00;-24448.72;5034171;28;20649;-65
2022/06/12 09:28:36;;;;;;;4.25;3.15;;;;;;;22.84;100.00;-24451.34;5031569;28;20268;-64
2022/06/12 09:31:25;;;;;;;4.60;3.20;;;;;;;23.20;100.00;-24461.16;5028436;28;20281;-63
2022/06/12 09:34:19;;;;;;;4.90;3.50;;;;;;;23.56;100.00;-24470.97;5031074;28;20681;-64
2022/06/12 09:40:03;;;;;;;5.47;3.50;;;;;;;23.14;100.00;-24459.50;5028356;28;20628;-63
2022/06/12 09:42:52;;;;;;;4.45;3.17;;;;;;;22.93;100.00;-24453.72;5032124;28;20175;-62
2022/06/12 09:45:32;;;;;;;4.45;3.25;;;;;;;23.06;100.00;-24457.16;5030067;28;20552;-61
2022/06/12 09:48:20;;;;;;;4.63;3.45;;;;;;;22.76;100.00;-24449.16;5029901;28;20222;-65
2022/06/12 09:51:22;;;;;;;4.88;3.15;;;;;;;22.79;100.00;-24449.97;5028416;28;20745;-65
2022/06/12 09:53:48;;;;;;;4.38;2.78;;;;;;;22.64;100.00;-24445.69;5028895;28;20197;-64
2022/06/12 09:56:20;;;;;;;4.82;3.03;;;;;;;22.78;100.00;-24449.56;5030291;28;20195;-66
2022/06/12 09:58:46;;;;;;;3.80;2.67;;;;;;;23.28;100.00;-24463.25;5029363;28;20250;-63
2022/06/12 10:01:21;;;;;;;3.58;2.75;;;;;;;23.00;100.00;-24455.63;5030910;28;20607;-66
2022/06/12 10:04:01;;;;;;;4.15;3.03;;;;;;;22.69;100.00;-24447.19;5030681;28;20202;-65
2022/06/12 10:06:32;;;;;;;4.03;3.10;;;;;;;22.92;100.00;-24453.28;5030239;28;20617;-66
2022/06/12 10:09:10;;;;;;;3.50;2.80;;;;;;;23.15;100.00;-24459.66;5031595;28;20207;-66
2022/06/12 10:11:51;;;;;;;4.70;2.85;;;;;;;23.44;100.00;-24467.53;5030885;28;20562;-63
2022/06/12 10:14:37;;;;;;;3.20;2.67;;;;;;;23.52;100.00;-24469.72;5031639;28;20187;-62
2022/06/12 10:17:05;;;;;;;5.50;3.22;;;;;;;23.11;100.00;-24458.69;5027346;28;20223;-64
2022/06/12 10:19:41;;;;;;;5.05;2.92;;;;;;;23.17;100.00;-24460.34;5030763;28;20638;-64
2022/06/12 10:22:14;;;;;;;4.38;3.08;;;;;;;23.09;100.00;-24458.00;5029669;28;20267;-62
2022/06/12 10:24:39;;;;;;;3.65;2.70;;;;;;;22.70;100.00;-24447.50;5029994;28;20183;-63
2022/06/12 10:27:10;;;;;;;4.57;2.90;;;;;;;22.67;100.00;-24446.66;5031395;28;20264;-65
2022/06/12 10:29:51;;;;;;;4.55;3.08;;;;;;;22.76;100.00;-24449.00;5030653;28;20598;-64
2022/06/12 10:32:20;;;;;;;4.72;3.10;;;;;;;22.38;100.00;-24438.63;5030020;28;20197;-63
2022/06/12 10:34:46;;;;;;;4.25;3.30;;;;;;;22.85;100.00;-24451.63;5030666;28;20191;-64
2022/06/12 10:37:22;;;;;;;3.45;2.70;;;;;;;22.69;100.00;-24447.19;5031487;28;20206;-65
2022/06/12 10:40:14;;;;;;;4.90;3.50;;;;;;;22.90;100.00;-24452.88;5020731;28;20175;-65
2022/06/12 10:43:04;;;;;;;4.07;3.00;;;;;;;22.69;100.00;-24447.19;5031095;28;20195;-64
2022/06/12 10:45:39;;;;;;;4.18;3.15;;;;;;;23.38;100.00;-24465.88;5030809;28;20221;-65
2022/06/12 10:48:24;;;;;;;5.07;3.40;;;;;;;23.44;100.00;-24467.66;5031433;28;20234;-64
2022/06/12 10:50:55;;;;;;;4.32;3.15;;;;;;;23.42;100.00;-24466.97;5028748;28;20187;-64
2022/06/12 10:53:23;;;;;;;4.53;3.10;;;;;;;22.89;100.00;-24452.72;5014978;28;20179;-62
2022/06/12 10:56:10;;;;;;;4.32;3.08;;;;;;;23.11;100.00;-24458.53;5030047;28;20183;-62
2022/06/12 10:58:54;;;;;;;5.88;3.55;;;;;;;22.92;100.00;-24453.44;5022550;28;20271;-65
2022/06/12 11:01:28;;;;;;;3.75;2.90;;;;;;;23.10;100.00;-24458.25;5030289;28;20187;-64
2022/06/12 11:04:09;;;;;;;5.07;3.30;;;;;;;23.11;100.00;-24458.69;5027661;28;20215;-62
2022/06/12 11:06:38;;;;;;;4.57;2.75;;;;;;;23.07;100.00;-24457.44;5030883;28;20171;-63
2022/06/12 11:09:03;;;;;;;4.75;3.10;;;;;;;23.38;100.00;-24466.00;5027270;28;20244;-63
2022/06/12 11:11:34;;;;;;;3.05;2.65;;;;;;;23.23;100.00;-24461.84;5030495;28;20601;-62
2022/06/12 11:14:31;;;;;;;3.67;2.90;;;;;;;23.25;100.00;-24462.41;5027706;28;20194;-64
2022/06/12 11:17:36;;;;;;;3.50;2.53;;;;;;;23.21;100.00;-24461.44;5029253;28;20211;-65
2022/06/12 11:20:16;;;;;;;3.78;2.78;;;;;;;22.78;100.00;-24449.56;5026140;28;20187;-62
2022/06/12 11:22:49;;;;;;;4.65;3.33;;;;;;;23.14;100.00;-24459.38;5026447;28;20266;-64
2022/06/12 11:25:22;;;;;;;4.07;2.78;;;;;;;23.24;100.00;-24462.28;5027158;28;20719;-64
2022/06/12 11:27:56;;;;;;;3.50;2.70;;;;;;;22.89;100.00;-24452.59;5027609;28;20720;-65
2022/06/12 11:30:48;;;;;;;4.07;2.58;;;;;;;23.15;100.00;-24459.66;5030001;28;20185;-64
2022/06/12 11:33:55;;;;;;;4.60;2.80;;;;;;;23.24;100.00;-24462.28;5030606;28;20187;-64
2022/06/12 11:36:32;;;;;;;5.20;2.70;;;;;;;23.23;100.00;-24461.84;5024169;28;20278;-63
2022/06/12 11:39:15;;;;;;;6.15;2.80;;;;;;;23.07;100.00;-24457.44;5031830;28;20186;-62
2022/06/12 11:41:59;;;;;;;3.85;2.70;;;;;;;23.01;100.00;-24455.78;5030348;28;20210;-64
2022/06/12 11:44:37;;;;;;;3.40;2.63;;;;;;;23.22;100.00;-24461.56;5030148;28;20215;-65
2022/06/12 11:47:25;;;;;;;4.05;2.90;;;;;;;23.25;100.00;-24462.41;5030355;28;20313;-62
2022/06/12 11:50:13;;;;;;;3.08;2.60;;;;;;;22.91;100.00;-24453.16;5018585;28;20203;-65
2022/06/12 11:53:04;;;;;;;4.80;3.08;;;;;;;22.70;100.00;-24447.34;5029536;28;20190;-62
2022/06/12 11:55:57;;;;;;;4.20;2.80;;;;;;;22.88;100.00;-24452.47;5030356;28;20642;-63
2022/06/12 11:58:30;;;;;;;3.67;2.90;;;;;;;22.85;100.00;-24451.50;5023688;28;20292;-63
2022/06/12 12:01:38;;;;;;;4.35;2.83;;;;;;;22.60;100.00;-24444.56;5029034;28;20661;-64
2022/06/12 12:04:25;;;;;;;4.03;2.80;;;;;;;22.51;100.00;-24442.09;4991161;28;20197;-62
2022/06/12 12:07:22;;;;;;;3.55;2.75;;;;;;;22.36;100.00;-24438.06;5027179;28;20176;-65
2022/06/12 12:10:21;;;;;;;4.25;2.90;;;;;;;22.26;100.00;-24435.44;5021826;28;20187;-64
2022/06/12 12:12:54;;;;;;;4.05;2.80;;;;;;;22.18;100.00;-24433.09;5027121;28;20223;-63
2022/06/12 12:15:26;;;;;;;3.70;2.85;;;;;;;22.10;100.00;-24430.88;5028499;28;20172;-64
2022/06/12 12:17:54;;;;;;;4.90;3.15;;;;;;;22.58;100.00;-24444.16;5025827;28;20203;-64
2022/06/12 12:20:26;;;;;;;4.30;2.92;;;;;;;22.83;100.00;-24451.09;5028727;28;20267;-62
2022/06/12 12:22:55;;;;;;;4.93;2.92;;;;;;;22.77;100.00;-24449.41;5026693;28;20176;-63
2022/06/12 12:25:45;;;;;;;3.85;2.65;;;;;;;23.12;100.00;-24458.81;5027860;28;20715;-67